sensor_id;sensor_type;location;lat;lon;timestamp;pressure;altitude;pressure_sealevel;temperature
34125;BMP280;20110;53.120;5.786;2022-07-26T00:01:31;101186.41;;;24.50
34125;BMP280;20110;53.120;5.786;2022-07-26T00:03:58;101173.75;;;24.27
34125;BMP280;20110;53.120;5.786;2022-07-26T00:06:24;101184.66;;;24.15
34125;BMP280;20110;53.120;5.786;2022-07-26T00:08:53;101205.91;;;24.32
34125;BMP280;20110;53.120;5.786;2022-07-26T00:11:19;101214.97;;;24.37
34125;BMP280;20110;53.120;5.786;2022-07-26T00:13:46;101195.34;;;24.25
34125;BMP280;20110;53.120;5.786;2022-07-26T00:16:12;101218.88;;;24.48
34125;BMP280;20110;53.120;5.786;2022-07-26T00:18:38;101215.16;;;24.55
34125;BMP280;20110;53.120;5.786;2022-07-26T00:21:05;101226.81;;;24.71
34125;BMP280;20110;53.120;5.786;2022-07-26T00:23:31;101193.97;;;24.51
34125;BMP280;20110;53.120;5.786;2022-07-26T00:25:57;101201.19;;;24.60
34125;BMP280;20110;53.120;5.786;2022-07-26T00:28:22;101208.22;;;24.65
34125;BMP280;20110;53.120;5.786;2022-07-26T00:30:48;101214.25;;;24.64
34125;BMP280;20110;53.120;5.786;2022-07-26T00:33:14;101210.56;;;24.57
34125;BMP280;20110;53.120;5.786;2022-07-26T00:35:40;101197.69;;;24.44
34125;BMP280;20110;53.120;5.786;2022-07-26T00:38:05;101203.91;;;24.47
34125;BMP280;20110;53.120;5.786;2022-07-26T00:40:31;101219.50;;;24.60
34125;BMP280;20110;53.120;5.786;2022-07-26T00:42:57;101241.94;;;24.74
34125;BMP280;20110;53.120;5.786;2022-07-26T00:45:23;101233.97;;;24.78
34125;BMP280;20110;53.120;5.786;2022-07-26T00:47:49;101216.66;;;24.71
34125;BMP280;20110;53.120;5.786;2022-07-26T00:50:17;101228.53;;;24.78
34125;BMP280;20110;53.120;5.786;2022-07-26T00:52:49;101223.81;;;24.65
34125;BMP280;20110;53.120;5.786;2022-07-26T00:55:16;101228.66;;;24.66
34125;BMP280;20110;53.120;5.786;2022-07-26T00:57:43;101226.53;;;24.65
34125;BMP280;20110;53.120;5.786;2022-07-26T01:00:13;101232.59;;;24.63
34125;BMP280;20110;53.120;5.786;2022-07-26T01:02:40;101235.19;;;24.75
34125;BMP280;20110;53.120;5.786;2022-07-26T01:05:06;101232.47;;;24.75
34125;BMP280;20110;53.120;5.786;2022-07-26T01:07:32;101221.22;;;24.67
34125;BMP280;20110;53.120;5.786;2022-07-26T01:10:00;101221.63;;;24.75
34125;BMP280;20110;53.120;5.786;2022-07-26T01:12:26;101232.47;;;24.89
34125;BMP280;20110;53.120;5.786;2022-07-26T01:14:52;101214.44;;;24.81
34125;BMP280;20110;53.120;5.786;2022-07-26T01:17:17;101243.19;;;25.14
34125;BMP280;20110;53.120;5.786;2022-07-26T01:19:43;101241.28;;;25.16
34125;BMP280;20110;53.120;5.786;2022-07-26T01:22:09;101188.19;;;24.86
34125;BMP280;20110;53.120;5.786;2022-07-26T01:24:35;101240.31;;;25.25
34125;BMP280;20110;53.120;5.786;2022-07-26T01:27:00;101239.81;;;25.29
34125;BMP280;20110;53.120;5.786;2022-07-26T01:29:26;101208.19;;;25.06
34125;BMP280;20110;53.120;5.786;2022-07-26T01:31:52;101239.75;;;25.27
34125;BMP280;20110;53.120;5.786;2022-07-26T01:34:19;101240.53;;;25.30
34125;BMP280;20110;53.120;5.786;2022-07-26T01:36:45;101234.78;;;25.23
34125;BMP280;20110;53.120;5.786;2022-07-26T01:39:11;101225.56;;;25.15
34125;BMP280;20110;53.120;5.786;2022-07-26T01:41:37;101248.47;;;25.25
34125;BMP280;20110;53.120;5.786;2022-07-26T01:44:04;101264.38;;;25.31
34125;BMP280;20110;53.120;5.786;2022-07-26T01:46:30;101245.19;;;25.13
34125;BMP280;20110;53.120;5.786;2022-07-26T01:48:55;101248.22;;;25.06
34125;BMP280;20110;53.120;5.786;2022-07-26T01:51:21;101268.88;;;24.84
34125;BMP280;20110;53.120;5.786;2022-07-26T01:53:47;101256.47;;;24.40
34125;BMP280;20110;53.120;5.786;2022-07-26T01:56:13;101273.44;;;24.26
34125;BMP280;20110;53.120;5.786;2022-07-26T01:58:40;101254.59;;;24.03
34125;BMP280;20110;53.120;5.786;2022-07-26T02:01:07;101278.81;;;23.99
34125;BMP280;20110;53.120;5.786;2022-07-26T02:03:34;101277.72;;;23.79
34125;BMP280;20110;53.120;5.786;2022-07-26T02:06:00;101266.66;;;23.75
34125;BMP280;20110;53.120;5.786;2022-07-26T02:08:26;101235.88;;;23.45
34125;BMP280;20110;53.120;5.786;2022-07-26T02:10:53;101279.75;;;23.78
34125;BMP280;20110;53.120;5.786;2022-07-26T02:13:29;101284.94;;;23.74
34125;BMP280;20110;53.120;5.786;2022-07-26T02:15:55;101286.72;;;23.70
34125;BMP280;20110;53.120;5.786;2022-07-26T02:18:25;101291.22;;;23.65
34125;BMP280;20110;53.120;5.786;2022-07-26T02:20:51;101285.00;;;23.51
34125;BMP280;20110;53.120;5.786;2022-07-26T02:23:17;101295.72;;;23.49
34125;BMP280;20110;53.120;5.786;2022-07-26T02:25:43;101289.66;;;23.37
34125;BMP280;20110;53.120;5.786;2022-07-26T02:28:08;101278.72;;;23.23
34125;BMP280;20110;53.120;5.786;2022-07-26T02:30:34;101301.44;;;23.30
34125;BMP280;20110;53.120;5.786;2022-07-26T02:33:00;101301.81;;;23.24
34125;BMP280;20110;53.120;5.786;2022-07-26T02:35:26;101301.69;;;23.22
34125;BMP280;20110;53.120;5.786;2022-07-26T02:37:51;101280.16;;;23.01
34125;BMP280;20110;53.120;5.786;2022-07-26T02:40:17;101291.91;;;23.05
34125;BMP280;20110;53.120;5.786;2022-07-26T02:42:43;101278.38;;;22.94
34125;BMP280;20110;53.120;5.786;2022-07-26T02:45:09;101280.28;;;22.91
34125;BMP280;20110;53.120;5.786;2022-07-26T02:47:48;101317.63;;;22.93
34125;BMP280;20110;53.120;5.786;2022-07-26T02:50:18;101316.53;;;22.86
34125;BMP280;20110;53.120;5.786;2022-07-26T02:52:46;101327.38;;;22.86
34125;BMP280;20110;53.120;5.786;2022-07-26T02:55:18;101293.22;;;22.58
34125;BMP280;20110;53.120;5.786;2022-07-26T02:57:44;101306.06;;;22.69
34125;BMP280;20110;53.120;5.786;2022-07-26T03:00:12;101333.13;;;22.81
34125;BMP280;20110;53.120;5.786;2022-07-26T03:02:38;101333.34;;;22.73
34125;BMP280;20110;53.120;5.786;2022-07-26T03:05:06;101318.50;;;22.51
34125;BMP280;20110;53.120;5.786;2022-07-26T03:07:32;101330.59;;;22.50
34125;BMP280;20110;53.120;5.786;2022-07-26T03:09:59;101336.72;;;22.50
34125;BMP280;20110;53.120;5.786;2022-07-26T03:12:25;101336.72;;;22.50
34125;BMP280;20110;53.120;5.786;2022-07-26T03:14:51;101330.50;;;22.48
34125;BMP280;20110;53.120;5.786;2022-07-26T03:17:17;101341.66;;;22.54
34125;BMP280;20110;53.120;5.786;2022-07-26T03:19:43;101334.50;;;22.47
34125;BMP280;20110;53.120;5.786;2022-07-26T03:22:10;101333.88;;;22.48
34125;BMP280;20110;53.120;5.786;2022-07-26T03:24:36;101336.59;;;22.48
34125;BMP280;20110;53.120;5.786;2022-07-26T03:27:02;101358.31;;;22.72
34125;BMP280;20110;53.120;5.786;2022-07-26T03:29:28;101349.59;;;22.61
34125;BMP280;20110;53.120;5.786;2022-07-26T03:31:54;101320.81;;;22.45
34125;BMP280;20110;53.120;5.786;2022-07-26T03:34:20;101335.31;;;22.49
34125;BMP280;20110;53.120;5.786;2022-07-26T03:36:46;101363.50;;;22.68
34125;BMP280;20110;53.120;5.786;2022-07-26T03:39:12;101369.34;;;22.64
34125;BMP280;20110;53.120;5.786;2022-07-26T03:41:37;101363.00;;;22.59
34125;BMP280;20110;53.120;5.786;2022-07-26T03:44:03;101358.03;;;22.56
34125;BMP280;20110;53.120;5.786;2022-07-26T03:46:29;101347.31;;;22.46
34125;BMP280;20110;53.120;5.786;2022-07-26T03:48:55;101378.81;;;22.75
34125;BMP280;20110;53.120;5.786;2022-07-26T03:51:21;101379.88;;;22.81
34125;BMP280;20110;53.120;5.786;2022-07-26T03:53:47;101360.41;;;22.73
34125;BMP280;20110;53.120;5.786;2022-07-26T03:56:12;101365.16;;;22.84
34125;BMP280;20110;53.120;5.786;2022-07-26T03:59:08;101362.56;;;22.86
34125;BMP280;20110;53.120;5.786;2022-07-26T04:01:36;101391.81;;;23.11
34125;BMP280;20110;53.120;5.786;2022-07-26T04:04:10;101385.69;;;23.11
34125;BMP280;20110;53.120;5.786;2022-07-26T04:06:37;101364.25;;;23.03
34125;BMP280;20110;53.120;5.786;2022-07-26T04:09:05;101398.66;;;23.24
34125;BMP280;20110;53.120;5.786;2022-07-26T04:11:30;101377.19;;;23.16
34125;BMP280;20110;53.120;5.786;2022-07-26T04:13:57;101399.00;;;23.30
34125;BMP280;20110;53.120;5.786;2022-07-26T04:16:23;101405.97;;;23.33
34125;BMP280;20110;53.120;5.786;2022-07-26T04:18:49;101410.19;;;23.36
34125;BMP280;20110;53.120;5.786;2022-07-26T04:21:15;101410.81;;;23.34
34125;BMP280;20110;53.120;5.786;2022-07-26T04:23:41;101419.53;;;23.44
34125;BMP280;20110;53.120;5.786;2022-07-26T04:26:07;101410.41;;;23.40
34125;BMP280;20110;53.120;5.786;2022-07-26T04:28:33;101429.28;;;23.49
34125;BMP280;20110;53.120;5.786;2022-07-26T04:30:59;101427.16;;;23.48
34125;BMP280;20110;53.120;5.786;2022-07-26T04:33:26;101438.94;;;23.53
34125;BMP280;20110;53.120;5.786;2022-07-26T04:35:52;101449.31;;;23.33
34125;BMP280;20110;53.120;5.786;2022-07-26T04:38:18;101445.50;;;23.15
34125;BMP280;20110;53.120;5.786;2022-07-26T04:40:44;101430.53;;;22.90
34125;BMP280;20110;53.120;5.786;2022-07-26T04:43:10;101443.38;;;23.01
34125;BMP280;20110;53.120;5.786;2022-07-26T04:45:36;101444.56;;;23.10
34125;BMP280;20110;53.120;5.786;2022-07-26T04:48:02;101444.69;;;23.12
34125;BMP280;20110;53.120;5.786;2022-07-26T04:50:28;101431.59;;;23.09
34125;BMP280;20110;53.120;5.786;2022-07-26T04:52:54;101436.72;;;23.14
34125;BMP280;20110;53.120;5.786;2022-07-26T04:55:21;101421.38;;;23.07
34125;BMP280;20110;53.120;5.786;2022-07-26T04:57:48;101454.63;;;23.31
34125;BMP280;20110;53.120;5.786;2022-07-26T05:00:18;101437.88;;;23.23
34125;BMP280;20110;53.120;5.786;2022-07-26T05:02:47;101458.03;;;23.43
34125;BMP280;20110;53.120;5.786;2022-07-26T05:05:14;101458.28;;;23.47
34125;BMP280;20110;53.120;5.786;2022-07-26T05:07:46;101460.88;;;23.57
34125;BMP280;20110;53.120;5.786;2022-07-26T05:10:14;101441.63;;;23.53
34125;BMP280;20110;53.120;5.786;2022-07-26T05:12:40;101464.16;;;23.78
34125;BMP280;20110;53.120;5.786;2022-07-26T05:15:07;101451.06;;;23.75
34125;BMP280;20110;53.120;5.786;2022-07-26T05:17:33;101480.63;;;23.94
34125;BMP280;20110;53.120;5.786;2022-07-26T05:20:02;101462.50;;;23.85
34125;BMP280;20110;53.120;5.786;2022-07-26T05:22:30;101449.78;;;23.64
34125;BMP280;20110;53.120;5.786;2022-07-26T05:24:55;101476.53;;;23.81
34125;BMP280;20110;53.120;5.786;2022-07-26T05:27:21;101464.16;;;23.55
34125;BMP280;20110;53.120;5.786;2022-07-26T05:29:47;101483.50;;;23.61
34125;BMP280;20110;53.120;5.786;2022-07-26T05:32:12;101499.88;;;23.63
34125;BMP280;20110;53.120;5.786;2022-07-26T05:34:40;101498.25;;;23.58
34125;BMP280;20110;53.120;5.786;2022-07-26T05:37:05;101507.69;;;23.57
34125;BMP280;20110;53.120;5.786;2022-07-26T05:39:31;101511.22;;;23.71
34125;BMP280;20110;53.120;5.786;2022-07-26T05:41:58;101479.13;;;23.56
34125;BMP280;20110;53.120;5.786;2022-07-26T05:44:24;101492.56;;;23.66
34125;BMP280;20110;53.120;5.786;2022-07-26T05:46:50;101494.34;;;23.73
34125;BMP280;20110;53.120;5.786;2022-07-26T05:49:16;101512.16;;;23.76
34125;BMP280;20110;53.120;5.786;2022-07-26T05:51:42;101516.16;;;23.75
34125;BMP280;20110;53.120;5.786;2022-07-26T05:54:07;101522.03;;;23.83
34125;BMP280;20110;53.120;5.786;2022-07-26T05:56:33;101533.13;;;23.99
34125;BMP280;20110;53.120;5.786;2022-07-26T05:58:59;101532.84;;;24.18
34125;BMP280;20110;53.120;5.786;2022-07-26T06:01:25;101535.03;;;24.45
34125;BMP280;20110;53.120;5.786;2022-07-26T06:03:50;101550.66;;;24.95
34125;BMP280;20110;53.120;5.786;2022-07-26T06:06:16;101543.19;;;25.20
34125;BMP280;20110;53.120;5.786;2022-07-26T06:08:42;101555.91;;;25.30
34125;BMP280;20110;53.120;5.786;2022-07-26T06:11:07;101551.91;;;25.05
34125;BMP280;20110;53.120;5.786;2022-07-26T06:13:33;101536.50;;;24.59
34125;BMP280;20110;53.120;5.786;2022-07-26T06:16:00;101542.56;;;24.09
34125;BMP280;20110;53.120;5.786;2022-07-26T06:18:26;101585.13;;;23.83
34125;BMP280;20110;53.120;5.786;2022-07-26T06:20:52;101577.91;;;23.53
34125;BMP280;20110;53.120;5.786;2022-07-26T06:23:17;101585.44;;;23.43
34125;BMP280;20110;53.120;5.786;2022-07-26T06:25:43;101580.47;;;23.39
34125;BMP280;20110;53.120;5.786;2022-07-26T06:28:10;101589.44;;;23.42
34125;BMP280;20110;53.120;5.786;2022-07-26T06:30:37;101592.31;;;23.56
34125;BMP280;20110;53.120;5.786;2022-07-26T06:33:05;101587.25;;;23.73
34125;BMP280;20110;53.120;5.786;2022-07-26T06:35:32;101585.13;;;23.83
34125;BMP280;20110;53.120;5.786;2022-07-26T06:38:01;101564.16;;;23.84
34125;BMP280;20110;53.120;5.786;2022-07-26T06:40:27;101606.81;;;24.18
34125;BMP280;20110;53.120;5.786;2022-07-26T06:42:53;101594.44;;;24.27
34125;BMP280;20110;53.120;5.786;2022-07-26T06:45:19;101603.97;;;24.51
34125;BMP280;20110;53.120;5.786;2022-07-26T06:47:45;101603.94;;;24.63
34125;BMP280;20110;53.120;5.786;2022-07-26T06:50:10;101613.63;;;24.91
34125;BMP280;20110;53.120;5.786;2022-07-26T06:52:36;101610.25;;;25.04
34125;BMP280;20110;53.120;5.786;2022-07-26T06:55:03;101616.25;;;25.14
34125;BMP280;20110;53.120;5.786;2022-07-26T06:57:30;101620.91;;;25.00
34125;BMP280;20110;53.120;5.786;2022-07-26T06:59:55;101628.97;;;24.73
34125;BMP280;20110;53.120;5.786;2022-07-26T07:02:21;101632.09;;;24.32
34125;BMP280;20110;53.120;5.786;2022-07-26T07:04:47;101633.97;;;23.95
34125;BMP280;20110;53.120;5.786;2022-07-26T07:07:13;101661.19;;;23.85
34125;BMP280;20110;53.120;5.786;2022-07-26T07:09:39;101660.97;;;23.81
34125;BMP280;20110;53.120;5.786;2022-07-26T07:12:06;101641.28;;;23.81
34125;BMP280;20110;53.120;5.786;2022-07-26T07:14:32;101633.97;;;24.07
34125;BMP280;20110;53.120;5.786;2022-07-26T07:16:59;101637.75;;;24.36
34125;BMP280;20110;53.120;5.786;2022-07-26T07:19:25;101651.00;;;24.79
34125;BMP280;20110;53.120;5.786;2022-07-26T07:21:51;101653.28;;;25.08
34125;BMP280;20110;53.120;5.786;2022-07-26T07:24:17;101644.47;;;25.21
34125;BMP280;20110;53.120;5.786;2022-07-26T07:26:44;101637.16;;;25.37
34125;BMP280;20110;53.120;5.786;2022-07-26T07:29:10;101640.13;;;25.68
34125;BMP280;20110;53.120;5.786;2022-07-26T07:31:40;101665.91;;;26.20
34125;BMP280;20110;53.120;5.786;2022-07-26T07:34:06;101644.50;;;26.42
34125;BMP280;20110;53.120;5.786;2022-07-26T07:36:33;101667.59;;;26.84
34125;BMP280;20110;53.120;5.786;2022-07-26T07:38:58;101641.94;;;26.89
34125;BMP280;20110;53.120;5.786;2022-07-26T07:41:24;101643.88;;;26.86
34125;BMP280;20110;53.120;5.786;2022-07-26T07:43:50;101646.88;;;26.92
34125;BMP280;20110;53.120;5.786;2022-07-26T07:46:16;101652.34;;;27.08
34125;BMP280;20110;53.120;5.786;2022-07-26T07:48:41;101657.72;;;27.06
34125;BMP280;20110;53.120;5.786;2022-07-26T07:51:08;101670.31;;;27.13
34125;BMP280;20110;53.120;5.786;2022-07-26T07:53:34;101661.25;;;26.79
34125;BMP280;20110;53.120;5.786;2022-07-26T07:56:00;101676.59;;;26.30
34125;BMP280;20110;53.120;5.786;2022-07-26T07:58:27;101685.13;;;25.44
34125;BMP280;20110;53.120;5.786;2022-07-26T08:00:52;101673.16;;;24.62
34125;BMP280;20110;53.120;5.786;2022-07-26T08:03:19;101671.50;;;24.22
34125;BMP280;20110;53.120;5.786;2022-07-26T08:05:46;101674.13;;;24.08
34125;BMP280;20110;53.120;5.786;2022-07-26T08:08:12;101684.25;;;24.08
34125;BMP280;20110;53.120;5.786;2022-07-26T08:10:37;101697.13;;;24.19
34125;BMP280;20110;53.120;5.786;2022-07-26T08:13:03;101690.41;;;24.31
34125;BMP280;20110;53.120;5.786;2022-07-26T08:15:29;101704.53;;;24.65
34125;BMP280;20110;53.120;5.786;2022-07-26T08:17:54;101707.88;;;25.00
34125;BMP280;20110;53.120;5.786;2022-07-26T08:20:21;101717.44;;;25.38
34125;BMP280;20110;53.120;5.786;2022-07-26T08:22:47;101692.84;;;25.61
34125;BMP280;20110;53.120;5.786;2022-07-26T08:25:12;101681.66;;;25.69
34125;BMP280;20110;53.120;5.786;2022-07-26T08:27:38;101663.47;;;25.46
34125;BMP280;20110;53.120;5.786;2022-07-26T08:30:05;101686.63;;;25.34
34125;BMP280;20110;53.120;5.786;2022-07-26T08:32:31;101687.72;;;24.92
34125;BMP280;20110;53.120;5.786;2022-07-26T08:34:56;101741.81;;;24.99
34125;BMP280;20110;53.120;5.786;2022-07-26T08:37:22;101743.47;;;24.93
34125;BMP280;20110;53.120;5.786;2022-07-26T08:39:48;101718.44;;;24.71
34125;BMP280;20110;53.120;5.786;2022-07-26T08:42:19;101733.97;;;24.57
34125;BMP280;20110;53.120;5.786;2022-07-26T08:44:48;101746.44;;;24.73
34125;BMP280;20110;53.120;5.786;2022-07-26T08:47:21;101747.25;;;24.99
34125;BMP280;20110;53.120;5.786;2022-07-26T08:49:47;101724.47;;;25.30
34125;BMP280;20110;53.120;5.786;2022-07-26T08:52:14;101730.53;;;25.67
34125;BMP280;20110;53.120;5.786;2022-07-26T08:54:47;101744.06;;;26.17
34125;BMP280;20110;53.120;5.786;2022-07-26T08:57:14;101753.31;;;26.81
34125;BMP280;20110;53.120;5.786;2022-07-26T08:59:41;101748.31;;;27.34
34125;BMP280;20110;53.120;5.786;2022-07-26T09:02:10;101755.56;;;27.74
34125;BMP280;20110;53.120;5.786;2022-07-26T09:04:40;101760.84;;;27.70
34125;BMP280;20110;53.120;5.786;2022-07-26T09:07:10;101766.78;;;27.35
34125;BMP280;20110;53.120;5.786;2022-07-26T09:10:03;101766.34;;;26.69
34125;BMP280;20110;53.120;5.786;2022-07-26T09:12:31;101780.38;;;26.63
34125;BMP280;20110;53.120;5.786;2022-07-26T09:14:59;101761.22;;;26.47
34125;BMP280;20110;53.120;5.786;2022-07-26T09:17:40;101774.66;;;26.57
34125;BMP280;20110;53.120;5.786;2022-07-26T09:20:14;101780.66;;;26.83
34125;BMP280;20110;53.120;5.786;2022-07-26T09:23:05;101767.22;;;26.87
34125;BMP280;20110;53.120;5.786;2022-07-26T09:25:37;101761.31;;;27.06
34125;BMP280;20110;53.120;5.786;2022-07-26T09:28:24;101773.81;;;27.40
34125;BMP280;20110;53.120;5.786;2022-07-26T09:31:00;101792.44;;;27.60
34125;BMP280;20110;53.120;5.786;2022-07-26T09:33:47;101792.50;;;27.62
34125;BMP280;20110;53.120;5.786;2022-07-26T09:36:14;101803.88;;;27.56
34125;BMP280;20110;53.120;5.786;2022-07-26T09:38:52;101809.88;;;27.68
34125;BMP280;20110;53.120;5.786;2022-07-26T09:43:47;101784.41;;;28.42
34125;BMP280;20110;53.120;5.786;2022-07-26T09:46:13;101800.00;;;28.73
34125;BMP280;20110;53.120;5.786;2022-07-26T09:48:41;101797.34;;;28.75
34125;BMP280;20110;53.120;5.786;2022-07-26T09:51:08;101810.09;;;28.86
34125;BMP280;20110;53.120;5.786;2022-07-26T09:53:45;101812.69;;;28.99
34125;BMP280;20110;53.120;5.786;2022-07-26T09:56:13;101804.16;;;28.91
34125;BMP280;20110;53.120;5.786;2022-07-26T09:58:39;101813.72;;;29.08
34125;BMP280;20110;53.120;5.786;2022-07-26T10:01:06;101812.84;;;29.21
34125;BMP280;20110;53.120;5.786;2022-07-26T10:03:34;101812.06;;;29.36
34125;BMP280;20110;53.120;5.786;2022-07-26T10:06:02;101830.53;;;29.73
34125;BMP280;20110;53.120;5.786;2022-07-26T10:08:29;101837.56;;;29.98
34125;BMP280;20110;53.120;5.786;2022-07-26T10:11:07;101829.22;;;30.14
34125;BMP280;20110;53.120;5.786;2022-07-26T10:13:33;101812.47;;;30.45
34125;BMP280;20110;53.120;5.786;2022-07-26T10:16:00;101812.63;;;30.73
34125;BMP280;20110;53.120;5.786;2022-07-26T10:21:19;101848.00;;;30.43
34125;BMP280;20110;53.120;5.786;2022-07-26T10:24:14;101832.91;;;30.42
34125;BMP280;20110;53.120;5.786;2022-07-26T10:26:39;101854.63;;;30.56
34125;BMP280;20110;53.120;5.786;2022-07-26T10:34:37;101841.97;;;32.11
34125;BMP280;20110;53.120;5.786;2022-07-26T10:37:10;101833.97;;;31.43
34125;BMP280;20110;53.120;5.786;2022-07-26T10:39:44;101853.59;;;31.10
34125;BMP280;20110;53.120;5.786;2022-07-26T10:42:10;101836.94;;;31.04
34125;BMP280;20110;53.120;5.786;2022-07-26T10:44:41;101841.28;;;30.89
34125;BMP280;20110;53.120;5.786;2022-07-26T10:47:15;101857.53;;;30.62
34125;BMP280;20110;53.120;5.786;2022-07-26T10:49:56;101849.97;;;30.82
34125;BMP280;20110;53.120;5.786;2022-07-26T10:52:28;101860.59;;;31.15
34125;BMP280;20110;53.120;5.786;2022-07-26T10:55:06;101854.53;;;30.97
34125;BMP280;20110;53.120;5.786;2022-07-26T10:57:41;101849.66;;;30.72
34125;BMP280;20110;53.120;5.786;2022-07-26T11:00:24;101862.91;;;30.79
34125;BMP280;20110;53.120;5.786;2022-07-26T11:02:57;101857.03;;;31.11
34125;BMP280;20110;53.120;5.786;2022-07-26T11:05:29;101851.91;;;31.23
34125;BMP280;20110;53.120;5.786;2022-07-26T11:08:05;101864.53;;;31.56
34125;BMP280;20110;53.120;5.786;2022-07-26T11:10:42;101877.09;;;31.88
34125;BMP280;20110;53.120;5.786;2022-07-26T11:13:16;101885.06;;;32.04
34125;BMP280;20110;53.120;5.786;2022-07-26T11:15:51;101878.84;;;32.27
34125;BMP280;20110;53.120;5.786;2022-07-26T11:18:23;101889.66;;;32.21
34125;BMP280;20110;53.120;5.786;2022-07-26T11:20:55;101867.84;;;32.01
34125;BMP280;20110;53.120;5.786;2022-07-26T11:23:28;101884.22;;;32.51
34125;BMP280;20110;53.120;5.786;2022-07-26T11:26:18;101893.47;;;32.36
34125;BMP280;20110;53.120;5.786;2022-07-26T11:28:50;101872.19;;;32.96
34125;BMP280;20110;53.120;5.786;2022-07-26T11:31:19;101876.97;;;32.93
34125;BMP280;20110;53.120;5.786;2022-07-26T11:33:48;101879.72;;;32.36
34125;BMP280;20110;53.120;5.786;2022-07-26T11:36:17;101886.63;;;32.11
34125;BMP280;20110;53.120;5.786;2022-07-26T11:38:50;101900.56;;;32.17
34125;BMP280;20110;53.120;5.786;2022-07-26T11:41:22;101902.81;;;33.44
34125;BMP280;20110;53.120;5.786;2022-07-26T11:43:50;101875.00;;;34.03
34125;BMP280;20110;53.120;5.786;2022-07-26T11:46:17;101890.13;;;34.00
34125;BMP280;20110;53.120;5.786;2022-07-26T11:48:52;101898.84;;;34.29
34125;BMP280;20110;53.120;5.786;2022-07-26T11:51:21;101879.00;;;34.36
34125;BMP280;20110;53.120;5.786;2022-07-26T11:53:48;101903.16;;;34.40
34125;BMP280;20110;53.120;5.786;2022-07-26T11:58:44;101904.03;;;35.52
34125;BMP280;20110;53.120;5.786;2022-07-26T12:01:12;101882.34;;;35.99
34125;BMP280;20110;53.120;5.786;2022-07-26T12:03:40;101879.84;;;34.95
34125;BMP280;20110;53.120;5.786;2022-07-26T12:06:12;101880.88;;;34.26
34125;BMP280;20110;53.120;5.786;2022-07-26T12:08:55;101890.72;;;33.59
34125;BMP280;20110;53.120;5.786;2022-07-26T12:11:24;101887.84;;;33.19
34125;BMP280;20110;53.120;5.786;2022-07-26T12:13:59;101913.44;;;32.66
34125;BMP280;20110;53.120;5.786;2022-07-26T12:16:43;101912.13;;;32.14
34125;BMP280;20110;53.120;5.786;2022-07-26T12:21:54;101880.94;;;32.03
34125;BMP280;20110;53.120;5.786;2022-07-26T12:24:46;101908.53;;;31.58
34125;BMP280;20110;53.120;5.786;2022-07-26T12:30:12;101902.97;;;30.67
34125;BMP280;20110;53.120;5.786;2022-07-26T12:32:41;101911.25;;;30.69
34125;BMP280;20110;53.120;5.786;2022-07-26T12:35:11;101910.00;;;30.52
34125;BMP280;20110;53.120;5.786;2022-07-26T12:37:49;101913.28;;;30.48
34125;BMP280;20110;53.120;5.786;2022-07-26T12:40:24;101898.81;;;30.66
34125;BMP280;20110;53.120;5.786;2022-07-26T12:45:34;101920.00;;;31.07
34125;BMP280;20110;53.120;5.786;2022-07-26T12:48:07;101934.41;;;31.29
34125;BMP280;20110;53.120;5.786;2022-07-26T12:50:37;101912.53;;;31.09
34125;BMP280;20110;53.120;5.786;2022-07-26T12:53:06;101930.88;;;31.03
34125;BMP280;20110;53.120;5.786;2022-07-26T12:55:33;101928.69;;;30.99
34125;BMP280;20110;53.120;5.786;2022-07-26T12:57:59;101937.16;;;31.07
34125;BMP280;20110;53.120;5.786;2022-07-26T13:00:26;101932.03;;;31.19
34125;BMP280;20110;53.120;5.786;2022-07-26T13:02:52;101922.66;;;31.72
34125;BMP280;20110;53.120;5.786;2022-07-26T13:05:20;101933.78;;;32.01
34125;BMP280;20110;53.120;5.786;2022-07-26T13:07:46;101930.88;;;31.72
34125;BMP280;20110;53.120;5.786;2022-07-26T13:10:12;101935.09;;;31.51
34125;BMP280;20110;53.120;5.786;2022-07-26T13:12:39;101924.53;;;31.20
34125;BMP280;20110;53.120;5.786;2022-07-26T13:15:06;101924.72;;;31.04
34125;BMP280;20110;53.120;5.786;2022-07-26T13:17:32;101943.22;;;31.03
34125;BMP280;20110;53.120;5.786;2022-07-26T13:19:57;101935.50;;;30.76
34125;BMP280;20110;53.120;5.786;2022-07-26T13:22:23;101939.88;;;30.85
34125;BMP280;20110;53.120;5.786;2022-07-26T13:24:49;101942.22;;;30.93
34125;BMP280;20110;53.120;5.786;2022-07-26T13:27:15;101933.53;;;30.79
34125;BMP280;20110;53.120;5.786;2022-07-26T13:29:41;101937.84;;;30.64
34125;BMP280;20110;53.120;5.786;2022-07-26T13:32:07;101927.09;;;30.50
34125;BMP280;20110;53.120;5.786;2022-07-26T13:34:33;101933.00;;;30.43
34125;BMP280;20110;53.120;5.786;2022-07-26T13:36:59;101947.00;;;30.73
34125;BMP280;20110;53.120;5.786;2022-07-26T13:39:25;101947.06;;;30.75
34125;BMP280;20110;53.120;5.786;2022-07-26T13:41:52;101939.44;;;30.51
34125;BMP280;20110;53.120;5.786;2022-07-26T13:44:18;101936.28;;;30.39
34125;BMP280;20110;53.120;5.786;2022-07-26T13:46:44;101946.97;;;30.31
34125;BMP280;20110;53.120;5.786;2022-07-26T13:49:10;101945.69;;;30.15
34125;BMP280;20110;53.120;5.786;2022-07-26T13:51:37;101921.94;;;30.02
34125;BMP280;20110;53.120;5.786;2022-07-26T13:54:30;101940.84;;;30.13
34125;BMP280;20110;53.120;5.786;2022-07-26T13:56:58;101939.56;;;29.96
34125;BMP280;20110;53.120;5.786;2022-07-26T13:59:24;101951.69;;;29.91
34125;BMP280;20110;53.120;5.786;2022-07-26T14:01:51;101948.28;;;29.73
34125;BMP280;20110;53.120;5.786;2022-07-26T14:04:18;101931.44;;;29.81
34125;BMP280;20110;53.120;5.786;2022-07-26T14:06:44;101955.53;;;29.84
34125;BMP280;20110;53.120;5.786;2022-07-26T14:09:11;101956.09;;;29.81
34125;BMP280;20110;53.120;5.786;2022-07-26T14:11:38;101953.50;;;29.85
34125;BMP280;20110;53.120;5.786;2022-07-26T14:14:05;101959.22;;;29.91
34125;BMP280;20110;53.120;5.786;2022-07-26T14:16:31;101940.69;;;29.72
34125;BMP280;20110;53.120;5.786;2022-07-26T14:18:58;101967.72;;;29.99
34125;BMP280;20110;53.120;5.786;2022-07-26T14:21:26;101956.22;;;30.03
34125;BMP280;20110;53.120;5.786;2022-07-26T14:23:52;101955.03;;;29.90